sensor_id;sensor_type;location;lat;lon;timestamp;P1;durP1;ratioP1;P2;durP2;ratioP2
21192;SDS011;10754;51.106;7.164;2023-07-31T00:01:02;4.75;;;2.30;;
21192;SDS011;10754;51.106;7.164;2023-07-31T00:03:27;3.47;;;2.13;;
21192;SDS011;10754;51.106;7.164;2023-07-31T00:05:53;3.92;;;1.95;;
21192;SDS011;10754;51.106;7.164;2023-07-31T00:08:18;4.53;;;2.00;;
21192;SDS011;10754;51.106;7.164;2023-07-31T00:10:44;3.33;;;2.20;;
21192;SDS011;10754;51.106;7.164;2023-07-31T00:13:09;2.72;;;2.20;;
21192;SDS011;10754;51.106;7.164;2023-07-31T00:15:35;2.75;;;1.92;;
21192;SDS011;10754;51.106;7.164;2023-07-31T00:18:00;3.95;;;2.42;;
21192;SDS011;10754;51.106;7.164;2023-07-31T00:20:26;6.45;;;2.55;;
21192;SDS011;10754;51.106;7.164;2023-07-31T00:22:51;3.80;;;2.42;;
21192;SDS011;10754;51.106;7.164;2023-07-31T00:25:17;3.38;;;2.25;;
21192;SDS011;10754;51.106;7.164;2023-07-31T00:27:42;4.70;;;2.13;;
21192;SDS011;10754;51.106;7.164;2023-07-31T00:30:09;2.90;;;2.10;;
21192;SDS011;10754;51.106;7.164;2023-07-31T00:32:35;3.95;;;2.20;;
21192;SDS011;10754;51.106;7.164;2023-07-31T00:35:01;4.10;;;2.47;;
21192;SDS011;10754;51.106;7.164;2023-07-31T00:37:27;3.70;;;2.22;;
21192;SDS011;10754;51.106;7.164;2023-07-31T00:39:52;4.32;;;2.58;;
21192;SDS011;10754;51.106;7.164;2023-07-31T00:42:18;4.50;;;2.20;;
21192;SDS011;10754;51.106;7.164;2023-07-31T00:44:43;4.93;;;2.25;;
21192;SDS011;10754;51.106;7.164;2023-07-31T00:47:09;3.63;;;2.33;;
21192;SDS011;10754;51.106;7.164;2023-07-31T00:49:34;5.88;;;2.38;;
21192;SDS011;10754;51.106;7.164;2023-07-31T00:52:00;8.32;;;2.40;;
21192;SDS011;10754;51.106;7.164;2023-07-31T00:54:27;4.70;;;2.70;;
21192;SDS011;10754;51.106;7.164;2023-07-31T00:56:53;4.07;;;2.10;;
21192;SDS011;10754;51.106;7.164;2023-07-31T00:59:19;3.70;;;2.17;;
21192;SDS011;10754;51.106;7.164;2023-07-31T01:01:45;4.60;;;2.72;;
21192;SDS011;10754;51.106;7.164;2023-07-31T01:04:11;5.00;;;3.25;;
21192;SDS011;10754;51.106;7.164;2023-07-31T01:06:45;5.05;;;2.90;;
21192;SDS011;10754;51.106;7.164;2023-07-31T01:09:35;6.15;;;2.67;;
21192;SDS011;10754;51.106;7.164;2023-07-31T01:12:09;3.63;;;2.33;;
21192;SDS011;10754;51.106;7.164;2023-07-31T01:14:39;4.93;;;2.45;;
21192;SDS011;10754;51.106;7.164;2023-07-31T01:17:04;3.45;;;2.45;;
21192;SDS011;10754;51.106;7.164;2023-07-31T01:19:30;3.60;;;2.42;;
21192;SDS011;10754;51.106;7.164;2023-07-31T01:24:58;5.20;;;2.60;;
21192;SDS011;10754;51.106;7.164;2023-07-31T01:27:29;4.40;;;2.10;;
21192;SDS011;10754;51.106;7.164;2023-07-31T01:30:00;4.22;;;2.30;;
21192;SDS011;10754;51.106;7.164;2023-07-31T01:32:35;5.18;;;2.15;;
21192;SDS011;10754;51.106;7.164;2023-07-31T01:35:04;4.68;;;2.75;;
21192;SDS011;10754;51.106;7.164;2023-07-31T01:37:30;7.63;;;2.60;;
21192;SDS011;10754;51.106;7.164;2023-07-31T01:39:56;4.05;;;2.33;;
21192;SDS011;10754;51.106;7.164;2023-07-31T01:42:22;5.80;;;2.33;;
21192;SDS011;10754;51.106;7.164;2023-07-31T01:44:47;2.75;;;1.80;;
21192;SDS011;10754;51.106;7.164;2023-07-31T01:47:13;2.80;;;1.98;;
21192;SDS011;10754;51.106;7.164;2023-07-31T01:49:38;3.72;;;2.05;;
21192;SDS011;10754;51.106;7.164;2023-07-31T01:52:04;3.13;;;2.15;;
21192;SDS011;10754;51.106;7.164;2023-07-31T01:54:30;4.28;;;2.42;;
21192;SDS011;10754;51.106;7.164;2023-07-31T01:56:55;5.95;;;2.08;;
21192;SDS011;10754;51.106;7.164;2023-07-31T01:59:21;5.05;;;2.40;;
21192;SDS011;10754;51.106;7.164;2023-07-31T02:01:46;4.93;;;2.30;;
21192;SDS011;10754;51.106;7.164;2023-07-31T02:04:12;5.85;;;2.40;;
21192;SDS011;10754;51.106;7.164;2023-07-31T02:06:37;5.00;;;2.47;;
21192;SDS011;10754;51.106;7.164;2023-07-31T02:09:04;4.40;;;2.38;;
21192;SDS011;10754;51.106;7.164;2023-07-31T02:11:29;5.10;;;2.45;;
21192;SDS011;10754;51.106;7.164;2023-07-31T02:13:55;4.53;;;2.60;;
21192;SDS011;10754;51.106;7.164;2023-07-31T02:16:20;4.05;;;2.75;;
21192;SDS011;10754;51.106;7.164;2023-07-31T02:18:46;3.63;;;2.33;;
21192;SDS011;10754;51.106;7.164;2023-07-31T02:21:11;8.25;;;2.40;;
21192;SDS011;10754;51.106;7.164;2023-07-31T02:23:37;4.10;;;2.03;;
21192;SDS011;10754;51.106;7.164;2023-07-31T02:26:02;3.53;;;2.20;;
21192;SDS011;10754;51.106;7.164;2023-07-31T02:28:28;5.35;;;2.42;;
21192;SDS011;10754;51.106;7.164;2023-07-31T02:30:54;6.35;;;2.53;;
21192;SDS011;10754;51.106;7.164;2023-07-31T02:33:19;4.88;;;2.05;;
21192;SDS011;10754;51.106;7.164;2023-07-31T02:35:45;6.80;;;2.30;;
21192;SDS011;10754;51.106;7.164;2023-07-31T02:38:10;4.60;;;2.15;;
21192;SDS011;10754;51.106;7.164;2023-07-31T02:40:36;4.18;;;2.42;;
21192;SDS011;10754;51.106;7.164;2023-07-31T02:43:01;5.05;;;2.30;;
21192;SDS011;10754;51.106;7.164;2023-07-31T02:45:27;5.13;;;2.17;;
21192;SDS011;10754;51.106;7.164;2023-07-31T02:47:53;3.53;;;1.85;;
21192;SDS011;10754;51.106;7.164;2023-07-31T02:50:18;5.28;;;2.80;;
21192;SDS011;10754;51.106;7.164;2023-07-31T02:52:44;4.57;;;2.35;;
21192;SDS011;10754;51.106;7.164;2023-07-31T02:55:09;4.43;;;2.30;;
21192;SDS011;10754;51.106;7.164;2023-07-31T02:57:35;3.92;;;2.40;;
21192;SDS011;10754;51.106;7.164;2023-07-31T03:00:00;3.05;;;2.17;;
21192;SDS011;10754;51.106;7.164;2023-07-31T03:02:26;3.03;;;2.10;;
21192;SDS011;10754;51.106;7.164;2023-07-31T03:04:51;2.53;;;1.90;;
21192;SDS011;10754;51.106;7.164;2023-07-31T03:07:17;4.57;;;2.33;;
21192;SDS011;10754;51.106;7.164;2023-07-31T03:09:42;3.50;;;2.10;;
21192;SDS011;10754;51.106;7.164;2023-07-31T03:12:08;5.63;;;2.00;;
21192;SDS011;10754;51.106;7.164;2023-07-31T03:14:33;3.13;;;2.05;;
21192;SDS011;10754;51.106;7.164;2023-07-31T03:16:59;5.88;;;2.67;;
21192;SDS011;10754;51.106;7.164;2023-07-31T03:19:25;7.75;;;2.75;;
21192;SDS011;10754;51.106;7.164;2023-07-31T03:21:50;5.30;;;2.38;;
21192;SDS011;10754;51.106;7.164;2023-07-31T03:24:16;4.32;;;2.25;;
21192;SDS011;10754;51.106;7.164;2023-07-31T03:26:41;5.70;;;2.20;;
21192;SDS011;10754;51.106;7.164;2023-07-31T03:29:07;2.88;;;2.25;;
21192;SDS011;10754;51.106;7.164;2023-07-31T03:31:33;4.05;;;2.20;;
21192;SDS011;10754;51.106;7.164;2023-07-31T03:33:58;5.45;;;2.63;;
21192;SDS011;10754;51.106;7.164;2023-07-31T03:36:24;6.97;;;2.58;;
21192;SDS011;10754;51.106;7.164;2023-07-31T03:38:51;6.07;;;2.70;;
21192;SDS011;10754;51.106;7.164;2023-07-31T03:41:16;3.40;;;2.35;;
21192;SDS011;10754;51.106;7.164;2023-07-31T03:43:42;4.40;;;2.50;;
21192;SDS011;10754;51.106;7.164;2023-07-31T03:46:07;3.00;;;1.88;;
21192;SDS011;10754;51.106;7.164;2023-07-31T03:48:33;5.60;;;2.67;;
21192;SDS011;10754;51.106;7.164;2023-07-31T03:50:58;5.15;;;2.22;;
21192;SDS011;10754;51.106;7.164;2023-07-31T03:53:24;4.68;;;2.33;;
21192;SDS011;10754;51.106;7.164;2023-07-31T03:55:49;4.72;;;2.45;;
21192;SDS011;10754;51.106;7.164;2023-07-31T03:58:15;4.30;;;2.58;;
21192;SDS011;10754;51.106;7.164;2023-07-31T04:00:40;3.47;;;2.28;;
21192;SDS011;10754;51.106;7.164;2023-07-31T04:03:06;4.75;;;2.28;;
21192;SDS011;10754;51.106;7.164;2023-07-31T04:05:32;4.47;;;2.30;;
21192;SDS011;10754;51.106;7.164;2023-07-31T04:07:58;5.40;;;2.55;;
21192;SDS011;10754;51.106;7.164;2023-07-31T04:10:23;5.05;;;2.60;;
21192;SDS011;10754;51.106;7.164;2023-07-31T04:12:49;4.78;;;2.42;;
21192;SDS011;10754;51.106;7.164;2023-07-31T04:15:14;5.35;;;2.70;;
21192;SDS011;10754;51.106;7.164;2023-07-31T04:17:40;4.63;;;2.65;;
21192;SDS011;10754;51.106;7.164;2023-07-31T04:20:05;3.95;;;2.85;;
21192;SDS011;10754;51.106;7.164;2023-07-31T04:22:31;4.13;;;1.92;;
21192;SDS011;10754;51.106;7.164;2023-07-31T04:24:57;2.38;;;2.17;;
21192;SDS011;10754;51.106;7.164;2023-07-31T04:27:22;4.22;;;2.97;;
21192;SDS011;10754;51.106;7.164;2023-07-31T04:29:48;7.75;;;2.90;;
21192;SDS011;10754;51.106;7.164;2023-07-31T04:32:13;4.90;;;2.67;;
21192;SDS011;10754;51.106;7.164;2023-07-31T04:34:41;4.60;;;2.85;;
21192;SDS011;10754;51.106;7.164;2023-07-31T04:37:07;6.07;;;2.80;;
21192;SDS011;10754;51.106;7.164;2023-07-31T04:39:33;8.23;;;2.80;;
21192;SDS011;10754;51.106;7.164;2023-07-31T04:41:58;5.22;;;2.65;;
21192;SDS011;10754;51.106;7.164;2023-07-31T04:44:24;6.75;;;2.90;;
21192;SDS011;10754;51.106;7.164;2023-07-31T04:46:49;4.72;;;2.42;;
21192;SDS011;10754;51.106;7.164;2023-07-31T04:49:15;5.40;;;2.40;;
21192;SDS011;10754;51.106;7.164;2023-07-31T04:51:40;5.25;;;3.13;;
21192;SDS011;10754;51.106;7.164;2023-07-31T04:54:06;3.92;;;2.58;;
21192;SDS011;10754;51.106;7.164;2023-07-31T04:56:31;4.75;;;3.13;;
21192;SDS011;10754;51.106;7.164;2023-07-31T04:58:57;4.60;;;2.75;;
21192;SDS011;10754;51.106;7.164;2023-07-31T05:01:22;3.65;;;2.50;;
21192;SDS011;10754;51.106;7.164;2023-07-31T05:03:48;5.00;;;2.65;;
21192;SDS011;10754;51.106;7.164;2023-07-31T05:06:13;6.53;;;3.05;;
21192;SDS011;10754;51.106;7.164;2023-07-31T05:08:40;3.20;;;2.45;;
21192;SDS011;10754;51.106;7.164;2023-07-31T05:11:05;4.45;;;2.90;;
21192;SDS011;10754;51.106;7.164;2023-07-31T05:13:31;3.67;;;2.55;;
21192;SDS011;10754;51.106;7.164;2023-07-31T05:15:57;5.53;;;2.80;;
21192;SDS011;10754;51.106;7.164;2023-07-31T05:18:22;7.20;;;2.80;;
21192;SDS011;10754;51.106;7.164;2023-07-31T05:20:48;3.70;;;2.30;;
21192;SDS011;10754;51.106;7.164;2023-07-31T05:23:13;3.15;;;2.15;;
21192;SDS011;10754;51.106;7.164;2023-07-31T05:25:39;4.38;;;3.22;;
21192;SDS011;10754;51.106;7.164;2023-07-31T05:28:05;7.22;;;2.78;;
21192;SDS011;10754;51.106;7.164;2023-07-31T05:30:30;5.45;;;2.97;;
21192;SDS011;10754;51.106;7.164;2023-07-31T05:32:56;4.07;;;2.83;;
21192;SDS011;10754;51.106;7.164;2023-07-31T05:35:22;3.42;;;2.38;;
21192;SDS011;10754;51.106;7.164;2023-07-31T05:37:47;5.00;;;3.20;;
21192;SDS011;10754;51.106;7.164;2023-07-31T05:40:13;4.97;;;3.15;;
21192;SDS011;10754;51.106;7.164;2023-07-31T05:42:39;3.60;;;2.38;;
21192;SDS011;10754;51.106;7.164;2023-07-31T05:45:05;3.47;;;2.67;;
21192;SDS011;10754;51.106;7.164;2023-07-31T05:47:31;3.22;;;2.55;;
21192;SDS011;10754;51.106;7.164;2023-07-31T05:49:57;7.10;;;2.47;;
21192;SDS011;10754;51.106;7.164;2023-07-31T05:52:22;3.13;;;2.28;;
21192;SDS011;10754;51.106;7.164;2023-07-31T05:54:48;3.25;;;2.83;;
21192;SDS011;10754;51.106;7.164;2023-07-31T05:57:13;4.32;;;2.58;;
21192;SDS011;10754;51.106;7.164;2023-07-31T05:59:39;3.60;;;2.38;;
21192;SDS011;10754;51.106;7.164;2023-07-31T06:02:04;3.45;;;2.40;;
21192;SDS011;10754;51.106;7.164;2023-07-31T06:04:31;3.00;;;2.33;;
21192;SDS011;10754;51.106;7.164;2023-07-31T06:06:56;3.55;;;2.25;;
21192;SDS011;10754;51.106;7.164;2023-07-31T06:09:22;3.47;;;2.22;;
21192;SDS011;10754;51.106;7.164;2023-07-31T06:11:47;3.22;;;2.30;;
21192;SDS011;10754;51.106;7.164;2023-07-31T06:14:13;3.17;;;2.55;;
21192;SDS011;10754;51.106;7.164;2023-07-31T06:16:38;5.20;;;2.78;;
21192;SDS011;10754;51.106;7.164;2023-07-31T06:19:04;4.70;;;2.75;;
21192;SDS011;10754;51.106;7.164;2023-07-31T06:21:29;3.22;;;2.67;;
21192;SDS011;10754;51.106;7.164;2023-07-31T06:23:56;3.35;;;2.70;;
21192;SDS011;10754;51.106;7.164;2023-07-31T06:26:21;2.90;;;2.38;;
21192;SDS011;10754;51.106;7.164;2023-07-31T06:28:47;4.13;;;2.65;;
21192;SDS011;10754;51.106;7.164;2023-07-31T06:31:12;5.10;;;2.85;;
21192;SDS011;10754;51.106;7.164;2023-07-31T06:33:38;5.40;;;2.65;;
21192;SDS011;10754;51.106;7.164;2023-07-31T06:36:03;3.10;;;2.50;;
21192;SDS011;10754;51.106;7.164;2023-07-31T06:38:29;4.00;;;2.80;;
21192;SDS011;10754;51.106;7.164;2023-07-31T06:40:55;4.30;;;2.60;;
21192;SDS011;10754;51.106;7.164;2023-07-31T06:43:20;12.48;;;3.25;;
21192;SDS011;10754;51.106;7.164;2023-07-31T06:45:46;4.28;;;2.42;;
21192;SDS011;10754;51.106;7.164;2023-07-31T06:48:15;4.55;;;2.72;;
21192;SDS011;10754;51.106;7.164;2023-07-31T06:50:40;3.60;;;2.67;;
21192;SDS011;10754;51.106;7.164;2023-07-31T06:53:06;3.67;;;2.65;;
21192;SDS011;10754;51.106;7.164;2023-07-31T06:55:31;4.13;;;2.83;;
21192;SDS011;10754;51.106;7.164;2023-07-31T06:57:57;3.15;;;2.45;;
21192;SDS011;10754;51.106;7.164;2023-07-31T07:00:22;6.30;;;2.90;;
21192;SDS011;10754;51.106;7.164;2023-07-31T07:02:48;2.85;;;2.38;;
21192;SDS011;10754;51.106;7.164;2023-07-31T07:05:15;3.70;;;2.65;;
21192;SDS011;10754;51.106;7.164;2023-07-31T07:07:42;3.88;;;2.50;;
21192;SDS011;10754;51.106;7.164;2023-07-31T07:10:08;3.63;;;2.83;;
21192;SDS011;10754;51.106;7.164;2023-07-31T07:12:34;3.08;;;2.40;;
21192;SDS011;10754;51.106;7.164;2023-07-31T07:15:00;3.30;;;2.28;;
21192;SDS011;10754;51.106;7.164;2023-07-31T07:17:27;2.50;;;2.25;;
21192;SDS011;10754;51.106;7.164;2023-07-31T07:19:57;3.28;;;2.40;;
21192;SDS011;10754;51.106;7.164;2023-07-31T07:22:23;3.15;;;2.50;;
21192;SDS011;10754;51.106;7.164;2023-07-31T07:24:49;4.97;;;2.92;;
21192;SDS011;10754;51.106;7.164;2023-07-31T07:27:15;3.65;;;2.63;;
21192;SDS011;10754;51.106;7.164;2023-07-31T07:29:41;3.83;;;2.72;;
21192;SDS011;10754;51.106;7.164;2023-07-31T07:32:06;6.03;;;2.78;;
21192;SDS011;10754;51.106;7.164;2023-07-31T07:34:32;3.40;;;2.97;;
21192;SDS011;10754;51.106;7.164;2023-07-31T07:36:58;5.10;;;3.33;;
21192;SDS011;10754;51.106;7.164;2023-07-31T07:39:23;2.78;;;2.55;;
21192;SDS011;10754;51.106;7.164;2023-07-31T07:41:49;4.18;;;2.60;;
21192;SDS011;10754;51.106;7.164;2023-07-31T07:44:15;5.50;;;3.28;;
21192;SDS011;10754;51.106;7.164;2023-07-31T07:46:40;3.65;;;2.40;;
21192;SDS011;10754;51.106;7.164;2023-07-31T07:49:06;4.10;;;2.30;;
21192;SDS011;10754;51.106;7.164;2023-07-31T07:51:32;3.85;;;2.78;;
21192;SDS011;10754;51.106;7.164;2023-07-31T07:53:58;3.97;;;3.00;;
21192;SDS011;10754;51.106;7.164;2023-07-31T07:56:25;3.53;;;2.45;;
21192;SDS011;10754;51.106;7.164;2023-07-31T07:58:51;4.50;;;2.80;;
21192;SDS011;10754;51.106;7.164;2023-07-31T08:01:17;4.63;;;2.65;;
21192;SDS011;10754;51.106;7.164;2023-07-31T08:03:42;5.07;;;2.60;;
21192;SDS011;10754;51.106;7.164;2023-07-31T08:06:08;3.72;;;2.40;;
21192;SDS011;10754;51.106;7.164;2023-07-31T08:08:34;4.00;;;2.53;;
21192;SDS011;10754;51.106;7.164;2023-07-31T08:11:00;3.03;;;2.10;;
21192;SDS011;10754;51.106;7.164;2023-07-31T08:13:26;4.15;;;2.70;;
21192;SDS011;10754;51.106;7.164;2023-07-31T08:15:51;3.88;;;2.70;;
21192;SDS011;10754;51.106;7.164;2023-07-31T08:18:17;4.78;;;2.90;;
21192;SDS011;10754;51.106;7.164;2023-07-31T08:20:42;5.45;;;3.10;;
21192;SDS011;10754;51.106;7.164;2023-07-31T08:23:08;5.97;;;3.25;;
21192;SDS011;10754;51.106;7.164;2023-07-31T08:25:34;5.80;;;3.00;;
21192;SDS011;10754;51.106;7.164;2023-07-31T08:28:01;4.40;;;3.13;;
21192;SDS011;10754;51.106;7.164;2023-07-31T08:30:27;3.72;;;2.53;;
21192;SDS011;10754;51.106;7.164;2023-07-31T08:32:52;3.30;;;2.33;;
21192;SDS011;10754;51.106;7.164;2023-07-31T08:35:17;2.58;;;1.77;;
21192;SDS011;10754;51.106;7.164;2023-07-31T08:37:43;3.33;;;2.30;;
21192;SDS011;10754;51.106;7.164;2023-07-31T08:40:09;3.05;;;2.30;;
21192;SDS011;10754;51.106;7.164;2023-07-31T08:42:42;2.80;;;2.03;;
21192;SDS011;10754;51.106;7.164;2023-07-31T08:45:09;4.00;;;2.00;;
21192;SDS011;10754;51.106;7.164;2023-07-31T08:47:47;3.65;;;2.13;;
21192;SDS011;10754;51.106;7.164;2023-07-31T08:50:15;2.33;;;2.13;;
21192;SDS011;10754;51.106;7.164;2023-07-31T08:52:42;2.50;;;2.22;;
21192;SDS011;10754;51.106;7.164;2023-07-31T08:55:08;2.60;;;2.28;;
21192;SDS011;10754;51.106;7.164;2023-07-31T08:57:34;2.70;;;2.10;;
21192;SDS011;10754;51.106;7.164;2023-07-31T09:00:02;3.70;;;2.45;;
21192;SDS011;10754;51.106;7.164;2023-07-31T09:02:31;4.60;;;2.75;;
21192;SDS011;10754;51.106;7.164;2023-07-31T09:05:06;4.30;;;2.40;;
21192;SDS011;10754;51.106;7.164;2023-07-31T09:07:33;3.50;;;2.47;;
21192;SDS011;10754;51.106;7.164;2023-07-31T09:10:00;3.58;;;2.47;;
21192;SDS011;10754;51.106;7.164;2023-07-31T09:12:26;6.60;;;2.63;;
21192;SDS011;10754;51.106;7.164;2023-07-31T09:14:53;2.97;;;1.85;;
21192;SDS011;10754;51.106;7.164;2023-07-31T09:17:34;4.22;;;2.00;;
21192;SDS011;10754;51.106;7.164;2023-07-31T09:20:14;2.92;;;2.25;;
21192;SDS011;10754;51.106;7.164;2023-07-31T09:22:40;3.95;;;1.95;;
21192;SDS011;10754;51.106;7.164;2023-07-31T09:25:28;2.95;;;2.03;;
21192;SDS011;10754;51.106;7.164;2023-07-31T09:27:54;3.53;;;2.03;;
21192;SDS011;10754;51.106;7.164;2023-07-31T09:30:24;3.30;;;2.20;;
21192;SDS011;10754;51.106;7.164;2023-07-31T09:32:50;2.80;;;2.00;;
21192;SDS011;10754;51.106;7.164;2023-07-31T09:35:21;3.20;;;2.03;;
21192;SDS011;10754;51.106;7.164;2023-07-31T09:37:54;3.63;;;2.25;;
21192;SDS011;10754;51.106;7.164;2023-07-31T09:40:31;2.40;;;1.70;;
21192;SDS011;10754;51.106;7.164;2023-07-31T09:43:01;4.32;;;2.50;;
21192;SDS011;10754;51.106;7.164;2023-07-31T09:45:28;3.65;;;2.28;;
21192;SDS011;10754;51.106;7.164;2023-07-31T09:47:55;4.50;;;2.20;;
21192;SDS011;10754;51.106;7.164;2023-07-31T09:50:22;3.22;;;1.92;;
21192;SDS011;10754;51.106;7.164;2023-07-31T09:52:49;2.17;;;1.80;;
21192;SDS011;10754;51.106;7.164;2023-07-31T09:55:15;3.42;;;2.33;;
21192;SDS011;10754;51.106;7.164;2023-07-31T09:57:41;2.63;;;1.83;;
21192;SDS011;10754;51.106;7.164;2023-07-31T10:00:09;3.97;;;1.83;;
21192;SDS011;10754;51.106;7.164;2023-07-31T10:02:36;3.33;;;1.80;;
21192;SDS011;10754;51.106;7.164;2023-07-31T10:05:03;2.85;;;2.00;;
21192;SDS011;10754;51.106;7.164;2023-07-31T10:07:30;2.80;;;2.03;;
21192;SDS011;10754;51.106;7.164;2023-07-31T10:09:59;3.47;;;2.25;;
21192;SDS011;10754;51.106;7.164;2023-07-31T10:12:26;3.40;;;2.00;;
21192;SDS011;10754;51.106;7.164;2023-07-31T10:14:56;7.40;;;2.05;;
21192;SDS011;10754;51.106;7.164;2023-07-31T10:17:22;1.70;;;1.60;;
21192;SDS011;10754;51.106;7.164;2023-07-31T10:19:49;4.30;;;2.00;;
21192;SDS011;10754;51.106;7.164;2023-07-31T10:22:15;3.88;;;2.15;;
21192;SDS011;10754;51.106;7.164;2023-07-31T10:24:42;5.13;;;2.42;;
21192;SDS011;10754;51.106;7.164;2023-07-31T10:27:08;5.15;;;2.72;;
21192;SDS011;10754;51.106;7.164;2023-07-31T10:29:35;3.30;;;2.00;;
21192;SDS011;10754;51.106;7.164;2023-07-31T10:32:03;3.30;;;2.10;;
21192;SDS011;10754;51.106;7.164;2023-07-31T10:34:33;2.58;;;2.17;;
21192;SDS011;10754;51.106;7.164;2023-07-31T10:37:42;2.70;;;2.10;;
21192;SDS011;10754;51.106;7.164;2023-07-31T10:42:32;4.10;;;2.22;;
21192;SDS011;10754;51.106;7.164;2023-07-31T10:45:03;3.08;;;1.70;;
21192;SDS011;10754;51.106;7.164;2023-07-31T10:47:37;2.97;;;2.20;;
21192;SDS011;10754;51.106;7.164;2023-07-31T10:50:13;2.03;;;1.85;;
21192;SDS011;10754;51.106;7.164;2023-07-31T10:52:47;2.40;;;2.20;;
21192;SDS011;10754;51.106;7.164;2023-07-31T10:55:33;3.97;;;2.05;;
21192;SDS011;10754;51.106;7.164;2023-07-31T11:00:37;3.33;;;2.00;;
21192;SDS011;10754;51.106;7.164;2023-07-31T11:03:08;2.78;;;1.92;;
21192;SDS011;10754;51.106;7.164;2023-07-31T11:05:48;4.45;;;1.90;;
21192;SDS011;10754;51.106;7.164;2023-07-31T11:13:48;2.22;;;2.03;;
21192;SDS011;10754;51.106;7.164;2023-07-31T11:16:20;3.20;;;1.70;;
21192;SDS011;10754;51.106;7.164;2023-07-31T11:18:49;2.80;;;2.00;;
21192;SDS011;10754;51.106;7.164;2023-07-31T11:21:19;3.58;;;1.83;;
21192;SDS011;10754;51.106;7.164;2023-07-31T11:23:46;2.85;;;1.40;;
21192;SDS011;10754;51.106;7.164;2023-07-31T11:26:13;2.30;;;1.60;;
21192;SDS011;10754;51.106;7.164;2023-07-31T11:28:39;2.30;;;1.50;;
21192;SDS011;10754;51.106;7.164;2023-07-31T11:31:08;3.70;;;1.60;;
21192;SDS011;10754;51.106;7.164;2023-07-31T11:33:34;1.95;;;1.50;;
21192;SDS011;10754;51.106;7.164;2023-07-31T11:36:00;3.35;;;1.80;;
21192;SDS011;10754;51.106;7.164;2023-07-31T11:38:29;4.07;;;2.00;;
21192;SDS011;10754;51.106;7.164;2023-07-31T11:40:58;1.92;;;1.58;;
21192;SDS011;10754;51.106;7.164;2023-07-31T11:43:25;2.22;;;1.55;;
21192;SDS011;10754;51.106;7.164;2023-07-31T11:45:52;1.80;;;1.30;;
21192;SDS011;10754;51.106;7.164;2023-07-31T11:48:22;3.05;;;1.40;;
21192;SDS011;10754;51.106;7.164;2023-07-31T11:51:02;1.13;;;0.95;;
21192;SDS011;10754;51.106;7.164;2023-07-31T11:53:51;1.60;;;1.33;;
21192;SDS011;10754;51.106;7.164;2023-07-31T11:56:17;1.45;;;1.15;;
21192;SDS011;10754;51.106;7.164;2023-07-31T11:58:48;3.08;;;1.60;;
21192;SDS011;10754;51.106;7.164;2023-07-31T12:01:17;2.15;;;1.10;;
21192;SDS011;10754;51.106;7.164;2023-07-31T12:03:45;1.65;;;0.80;;
21192;SDS011;10754;51.106;7.164;2023-07-31T12:06:11;1.98;;;0.90;;
21192;SDS011;10754;51.106;7.164;2023-07-31T12:08:37;0.77;;;0.57;;
21192;SDS011;10754;51.106;7.164;2023-07-31T12:11:03;0.70;;;0.70;;
21192;SDS011;10754;51.106;7.164;2023-07-31T12:13:31;0.40;;;0.40;;
21192;SDS011;10754;51.106;7.164;2023-07-31T12:15:58;0.40;;;0.40;;
21192;SDS011;10754;51.106;7.164;2023-07-31T12:18:26;0.88;;;0.65;;
21192;SDS011;10754;51.106;7.164;2023-07-31T12:20:59;1.95;;;0.80;;
21192;SDS011;10754;51.106;7.164;2023-07-31T12:23:26;1.27;;;0.50;;
21192;SDS011;10754;51.106;7.164;2023-07-31T12:25:59;1.42;;;0.65;;
21192;SDS011;10754;51.106;7.164;2023-07-31T12:28:25;1.77;;;0.65;;
21192;SDS011;10754;51.106;7.164;2023-07-31T12:30:51;0.80;;;0.70;;
21192;SDS011;10754;51.106;7.164;2023-07-31T12:33:16;0.90;;;0.80;;
21192;SDS011;10754;51.106;7.164;2023-07-31T12:35:44;1.25;;;0.70;;
21192;SDS011;10754;51.106;7.164;2023-07-31T12:38:14;0.73;;;0.60;;
21192;SDS011;10754;51.106;7.164;2023-07-31T12:40:40;1.33;;;0.63;;
21192;SDS011;10754;51.106;7.164;2023-07-31T12:43:06;1.05;;;0.88;;
21192;SDS011;10754;51.106;7.164;2023-07-31T12:45:33;0.90;;;0.88;;
21192;SDS011;10754;51.106;7.164;2023-07-31T12:47:59;1.20;;;1.05;;
21192;SDS011;10754;51.106;7.164;2023-07-31T12:50:25;1.45;;;1.20;;
21192;SDS011;10754;51.106;7.164;2023-07-31T12:52:51;2.20;;;1.40;;
21192;SDS011;10754;51.106;7.164;2023-07-31T12:55:17;2.33;;;1.67;;
21192;SDS011;10754;51.106;7.164;2023-07-31T12:57:43;2.00;;;1.40;;
21192;SDS011;10754;51.106;7.164;2023-07-31T13:00:09;1.83;;;1.50;;
21192;SDS011;10754;51.106;7.164;2023-07-31T13:02:35;2.15;;;1.40;;
21192;SDS011;10754;51.106;7.164;2023-07-31T13:05:01;1.60;;;1.27;;
21192;SDS011;10754;51.106;7.164;2023-07-31T13:07:26;2.25;;;1.40;;
21192;SDS011;10754;51.106;7.164;2023-07-31T13:09:51;2.03;;;1.67;;
21192;SDS011;10754;51.106;7.164;2023-07-31T13:12:17;1.55;;;1.45;;
21192;SDS011;10754;51.106;7.164;2023-07-31T13:14:43;3.30;;;1.70;;
21192;SDS011;10754;51.106;7.164;2023-07-31T13:17:08;2.47;;;1.58;;
21192;SDS011;10754;51.106;7.164;2023-07-31T13:19:34;1.55;;;1.40;;
21192;SDS011;10754;51.106;7.164;2023-07-31T13:21:59;1.50;;;1.30;;
21192;SDS011;10754;51.106;7.164;2023-07-31T13:24:25;2.03;;;1.35;;
21192;SDS011;10754;51.106;7.164;2023-07-31T13:26:50;1.95;;;1.30;;
21192;SDS011;10754;51.106;7.164;2023-07-31T13:29:16;1.50;;;1.40;;
21192;SDS011;10754;51.106;7.164;2023-07-31T13:31:41;1.38;;;1.27;;
21192;SDS011;10754;51.106;7.164;2023-07-31T13:34:07;1.75;;;1.50;;
21192;SDS011;10754;51.106;7.164;2023-07-31T13:36:32;1.30;;;1.20;;
21192;SDS011;10754;51.106;7.164;2023-07-31T13:38:59;2.45;;;1.17;;
21192;SDS011;10754;51.106;7.164;2023-07-31T13:41:25;3.50;;;1.55;;
21192;SDS011;10754;51.106;7.164;2023-07-31T13:43:51;2.63;;;2.08;;
21192;SDS011;10754;51.106;7.164;2023-07-31T13:46:16;1.90;;;1.80;;
21192;SDS011;10754;51.106;7.164;2023-07-31T13:48:42;2.40;;;2.20;;
21192;SDS011;10754;51.106;7.164;2023-07-31T13:51:07;2.10;;;1.70;;
21192;SDS011;10754;51.106;7.164;2023-07-31T13:53:33;1.63;;;1.52;;
21192;SDS011;10754;51.106;7.164;2023-07-31T13:55:58;3.47;;;1.50;;
21192;SDS011;10754;51.106;7.164;2023-07-31T13:58:24;2.63;;;1.30;;
21192;SDS011;10754;51.106;7.164;2023-07-31T14:00:50;1.77;;;1.42;;
21192;SDS011;10754;51.106;7.164;2023-07-31T14:03:15;1.52;;;1.35;;
21192;SDS011;10754;51.106;7.164;2023-07-31T14:05:41;1.55;;;1.20;;
21192;SDS011;10754;51.106;7.164;2023-07-31T14:08:06;2.78;;;1.70;;
21192;SDS011;10754;51.106;7.164;2023-07-31T14:10:32;1.42;;;1.33;;
21192;SDS011;10754;51.106;7.164;2023-07-31T14:12:57;2.22;;;1.67;;
21192;SDS011;10754;51.106;7.164;2023-07-31T14:15:23;3.70;;;1.77;;
21192;SDS011;10754;51.106;7.164;2023-07-31T14:17:48;2.38;;;1.38;;
21192;SDS011;10754;51.106;7.164;2023-07-31T14:20:14;1.50;;;1.23;;
21192;SDS011;10754;51.106;7.164;2023-07-31T14:22:39;3.17;;;1.70;;
21192;SDS011;10754;51.106;7.164;2023-07-31T14:25:05;1.63;;;1.20;;
21192;SDS011;10754;51.106;7.164;2023-07-31T14:27:31;2.20;;;1.40;;
21192;SDS011;10754;51.106;7.164;2023-07-31T14:29:56;2.08;;;1.65;;
21192;SDS011;10754;51.106;7.164;2023-07-31T14:32:22;2.25;;;1.50;;
21192;SDS011;10754;51.106;7.164;2023-07-31T14:34:50;4.60;;;1.50;;
21192;SDS011;10754;51.106;7.164;2023-07-31T14:37:16;1.48;;;1.38;;
21192;SDS011;10754;51.106;7.164;2023-07-31T14:39:42;2.42;;;1.38;;
21192;SDS011;10754;51.106;7.164;2023-07-31T14:42:08;3.03;;;2.00;;
21192;SDS011;10754;51.106;7.164;2023-07-31T14:44:34;2.85;;;1.50;;
21192;SDS011;10754;51.106;7.164;2023-07-31T14:47:00;2.45;;;1.80;;
21192;SDS011;10754;51.106;7.164;2023-07-31T14:49:25;1.75;;;1.60;;
21192;SDS011;10754;51.106;7.164;2023-07-31T14:51:53;2.35;;;1.70;;
21192;SDS011;10754;51.106;7.164;2023-07-31T14:54:19;2.97;;;1.80;;
21192;SDS011;10754;51.106;7.164;2023-07-31T14:56:44;1.42;;;1.25;;
21192;SDS011;10754;51.106;7.164;2023-07-31T14:59:10;1.45;;;1.35;;